ESSD

Details ICAO ESSD (BLE)
Name Borlange
Region Sweden
Timezone Europe/Stockholm (UTC+1.0)
Plans Departing 10
Arriving 20
Stats Elevation 503 ft / 153 m (AMSL)
Location 60.424422° 15.505841°
Runways 2
Magnetic Variation 5.241° E
Sunrise 2017-12-11 07:55:39 UTC / 2017-12-11 08:55:39 Local
Sunset 2017-12-11 13:49:41 UTC / 2017-12-11 14:49:41 Local
Advertisement - Login to hide

Runways

ID Width Length Bearing (true) Bearing (mag) Surface Threshold Offset Overrun Length
12 163 ft / 50 m 2,362 ft / 720 m 120.00° 114.76° Grass 0 ft / 0 m 0 ft / 0 m
14 148 ft / 45 m 7,561 ft / 2,305 m 132.46° 127.22° Asphalt 0 ft / 0 m 210 ft / 64 m
30 163 ft / 50 m 2,362 ft / 720 m 300.00° 294.76° Grass 0 ft / 0 m 0 ft / 0 m
32 148 ft / 45 m 7,561 ft / 2,305 m 312.49° 307.25° Asphalt 0 ft / 0 m 113 ft / 34 m

Approach Navaids

Runway Type Ident Frequency Range Bearing (true) Bearing (mag) Slope Elevation
32 Localiser SD 109.50 MHz 18 nm / 33 km 312.44° 307.20° - 503 ft / 153 m (AMSL)
32 Glidescope SD 109.50 MHz 10 nm / 19 km 312.48° 307.23° 3.00° 503 ft / 153 m (AMSL)

Map

Weather


0- 5 10 15 20 25 30 35+ Temperature / ° C

Clouds and Precipitation
Forecast for 2017-12-11 18:00 UTC. Updated 10 minutes ago

Ground ~20,000 ft ~40,000 ft Winds

METAR

ESSD 111720Z 35002KT 9999 -SN OVC004 M02/M03 Q0996

TAF

Not found

Frequencies

Tower 123.30 MHz TWR
Tower 127.30 MHz TWR
Warning: Do not use this data for real-world aviation or navigation. No guarantee of current accuracy is given.